sensor_id;sensor_type;location;lat;lon;timestamp;temperature;humidity
75985;DHT22;65033;44.660;37.758;2023-03-01T00:00:14;28.64;32.39
75985;DHT22;65033;44.660;37.758;2023-03-01T00:01:20;28.65;32.35
75985;DHT22;65033;44.660;37.758;2023-03-01T00:02:24;28.64;32.35
75985;DHT22;65033;44.660;37.758;2023-03-01T00:03:27;28.64;32.31
75985;DHT22;65033;44.660;37.758;2023-03-01T00:04:30;28.64;32.26
75985;DHT22;65033;44.660;37.758;2023-03-01T00:05:34;28.64;32.24
75985;DHT22;65033;44.660;37.758;2023-03-01T00:06:37;28.63;32.24
75985;DHT22;65033;44.660;37.758;2023-03-01T00:07:41;28.64;32.22
75985;DHT22;65033;44.660;37.758;2023-03-01T00:08:44;28.63;32.18
75985;DHT22;65033;44.660;37.758;2023-03-01T00:09:48;28.61;32.18
75985;DHT22;65033;44.660;37.758;2023-03-01T00:11:02;28.61;32.15
75985;DHT22;65033;44.660;37.758;2023-03-01T00:12:06;28.61;32.19
75985;DHT22;65033;44.660;37.758;2023-03-01T00:13:10;28.60;32.17
75985;DHT22;65033;44.660;37.758;2023-03-01T00:14:13;28.61;32.16
75985;DHT22;65033;44.660;37.758;2023-03-01T00:15:18;28.60;32.16
75985;DHT22;65033;44.660;37.758;2023-03-01T00:16:23;28.59;32.15
75985;DHT22;65033;44.660;37.758;2023-03-01T00:17:28;28.59;32.12
75985;DHT22;65033;44.660;37.758;2023-03-01T00:18:31;28.59;32.13
75985;DHT22;65033;44.660;37.758;2023-03-01T00:19:35;28.58;32.11
75985;DHT22;65033;44.660;37.758;2023-03-01T00:20:38;28.58;32.10
75985;DHT22;65033;44.660;37.758;2023-03-01T00:21:42;28.58;32.06
75985;DHT22;65033;44.660;37.758;2023-03-01T00:22:46;28.59;32.04
75985;DHT22;65033;44.660;37.758;2023-03-01T00:23:50;28.59;32.01
75985;DHT22;65033;44.660;37.758;2023-03-01T00:24:53;28.58;31.99
75985;DHT22;65033;44.660;37.758;2023-03-01T00:25:57;28.58;31.99
75985;DHT22;65033;44.660;37.758;2023-03-01T00:27:02;28.55;31.99
75985;DHT22;65033;44.660;37.758;2023-03-01T00:28:05;28.56;31.98
75985;DHT22;65033;44.660;37.758;2023-03-01T00:29:09;28.57;31.96
75985;DHT22;65033;44.660;37.758;2023-03-01T00:30:12;28.56;31.96
75985;DHT22;65033;44.660;37.758;2023-03-01T00:31:18;28.56;31.96
75985;DHT22;65033;44.660;37.758;2023-03-01T00:32:21;28.56;31.96
75985;DHT22;65033;44.660;37.758;2023-03-01T00:33:25;28.55;31.97
75985;DHT22;65033;44.660;37.758;2023-03-01T00:34:28;28.56;31.94
75985;DHT22;65033;44.660;37.758;2023-03-01T00:35:32;28.55;31.93
75985;DHT22;65033;44.660;37.758;2023-03-01T00:36:36;28.56;31.92
75985;DHT22;65033;44.660;37.758;2023-03-01T00:37:40;28.54;31.93
75985;DHT22;65033;44.660;37.758;2023-03-01T00:38:45;28.55;31.89
75985;DHT22;65033;44.660;37.758;2023-03-01T00:39:48;28.55;31.87
75985;DHT22;65033;44.660;37.758;2023-03-01T00:40:52;28.54;31.85
75985;DHT22;65033;44.660;37.758;2023-03-01T00:41:56;28.55;31.84
75985;DHT22;65033;44.660;37.758;2023-03-01T00:43:02;28.54;31.80
75985;DHT22;65033;44.660;37.758;2023-03-01T00:44:06;28.54;31.80
75985;DHT22;65033;44.660;37.758;2023-03-01T00:45:10;28.55;31.76
75985;DHT22;65033;44.660;37.758;2023-03-01T00:46:17;28.54;31.76
75985;DHT22;65033;44.660;37.758;2023-03-01T00:47:21;28.55;31.73
75985;DHT22;65033;44.660;37.758;2023-03-01T00:48:25;28.53;31.73
75985;DHT22;65033;44.660;37.758;2023-03-01T00:49:28;28.54;31.67
75985;DHT22;65033;44.660;37.758;2023-03-01T00:50:32;28.52;31.67
75985;DHT22;65033;44.660;37.758;2023-03-01T00:51:35;28.52;31.64
75985;DHT22;65033;44.660;37.758;2023-03-01T00:52:38;28.52;31.67
75985;DHT22;65033;44.660;37.758;2023-03-01T00:53:42;28.52;31.65
75985;DHT22;65033;44.660;37.758;2023-03-01T00:54:46;28.52;31.65
75985;DHT22;65033;44.660;37.758;2023-03-01T00:55:49;28.53;31.62
75985;DHT22;65033;44.660;37.758;2023-03-01T00:56:53;28.50;31.60
75985;DHT22;65033;44.660;37.758;2023-03-01T00:57:56;28.53;31.59
75985;DHT22;65033;44.660;37.758;2023-03-01T00:59:01;28.52;31.60
75985;DHT22;65033;44.660;37.758;2023-03-01T01:00:06;28.49;31.57
75985;DHT22;65033;44.660;37.758;2023-03-01T01:01:16;28.49;31.57
75985;DHT22;65033;44.660;37.758;2023-03-01T01:02:22;28.52;31.54
75985;DHT22;65033;44.660;37.758;2023-03-01T01:03:26;28.49;31.53
75985;DHT22;65033;44.660;37.758;2023-03-01T01:04:29;28.50;31.51
75985;DHT22;65033;44.660;37.758;2023-03-01T01:05:34;28.49;31.51
75985;DHT22;65033;44.660;37.758;2023-03-01T01:06:40;28.49;31.51
75985;DHT22;65033;44.660;37.758;2023-03-01T01:07:45;28.49;31.46
75985;DHT22;65033;44.660;37.758;2023-03-01T01:08:50;28.49;31.46
75985;DHT22;65033;44.660;37.758;2023-03-01T01:09:53;28.48;31.48
75985;DHT22;65033;44.660;37.758;2023-03-01T01:10:57;28.48;31.45
75985;DHT22;65033;44.660;37.758;2023-03-01T01:12:00;28.48;31.45
75985;DHT22;65033;44.660;37.758;2023-03-01T01:13:04;28.48;31.42
75985;DHT22;65033;44.660;37.758;2023-03-01T01:14:09;28.49;31.41
75985;DHT22;65033;44.660;37.758;2023-03-01T01:15:13;28.48;31.39
75985;DHT22;65033;44.660;37.758;2023-03-01T01:16:21;28.49;31.38
75985;DHT22;65033;44.660;37.758;2023-03-01T01:17:25;28.48;31.38
75985;DHT22;65033;44.660;37.758;2023-03-01T01:18:28;28.48;31.37
75985;DHT22;65033;44.660;37.758;2023-03-01T01:19:32;28.48;31.39
75985;DHT22;65033;44.660;37.758;2023-03-01T01:20:35;28.47;31.39
75985;DHT22;65033;44.660;37.758;2023-03-01T01:21:40;28.47;31.37
75985;DHT22;65033;44.660;37.758;2023-03-01T01:22:46;28.48;31.35
75985;DHT22;65033;44.660;37.758;2023-03-01T01:23:50;28.48;31.33
75985;DHT22;65033;44.660;37.758;2023-03-01T01:24:53;28.48;31.32
75985;DHT22;65033;44.660;37.758;2023-03-01T01:26:07;28.47;31.26
75985;DHT22;65033;44.660;37.758;2023-03-01T01:27:10;28.49;31.28
75985;DHT22;65033;44.660;37.758;2023-03-01T01:28:14;28.48;31.28
75985;DHT22;65033;44.660;37.758;2023-03-01T01:29:18;28.46;31.25
75985;DHT22;65033;44.660;37.758;2023-03-01T01:30:21;28.46;31.25
75985;DHT22;65033;44.660;37.758;2023-03-01T01:31:26;28.46;31.22
75985;DHT22;65033;44.660;37.758;2023-03-01T01:32:32;28.46;31.21
75985;DHT22;65033;44.660;37.758;2023-03-01T01:33:35;28.48;31.22
75985;DHT22;65033;44.660;37.758;2023-03-01T01:34:40;28.47;31.19
75985;DHT22;65033;44.660;37.758;2023-03-01T01:35:45;28.47;31.16
75985;DHT22;65033;44.660;37.758;2023-03-01T01:36:49;28.46;31.14
75985;DHT22;65033;44.660;37.758;2023-03-01T01:37:52;28.46;31.16
75985;DHT22;65033;44.660;37.758;2023-03-01T01:38:56;28.48;31.10
75985;DHT22;65033;44.660;37.758;2023-03-01T01:40:01;28.47;31.12
75985;DHT22;65033;44.660;37.758;2023-03-01T01:41:07;28.47;31.06
75985;DHT22;65033;44.660;37.758;2023-03-01T01:42:14;28.48;31.06
75985;DHT22;65033;44.660;37.758;2023-03-01T01:43:22;28.47;31.01
75985;DHT22;65033;44.660;37.758;2023-03-01T01:44:27;28.47;31.05
75985;DHT22;65033;44.660;37.758;2023-03-01T01:45:33;28.47;31.04
75985;DHT22;65033;44.660;37.758;2023-03-01T01:46:38;28.46;31.05
75985;DHT22;65033;44.660;37.758;2023-03-01T01:47:43;28.48;31.04
75985;DHT22;65033;44.660;37.758;2023-03-01T01:48:55;28.46;31.06
75985;DHT22;65033;44.660;37.758;2023-03-01T01:49:59;28.47;30.96
75985;DHT22;65033;44.660;37.758;2023-03-01T01:51:02;28.47;30.95
75985;DHT22;65033;44.660;37.758;2023-03-01T01:52:10;28.48;30.89
75985;DHT22;65033;44.660;37.758;2023-03-01T01:53:17;28.48;30.88
75985;DHT22;65033;44.660;37.758;2023-03-01T01:54:23;28.47;30.87
75985;DHT22;65033;44.660;37.758;2023-03-01T01:55:29;28.47;30.83
75985;DHT22;65033;44.660;37.758;2023-03-01T01:56:32;28.47;30.87
75985;DHT22;65033;44.660;37.758;2023-03-01T01:57:38;28.47;30.86
75985;DHT22;65033;44.660;37.758;2023-03-01T01:58:42;28.46;30.87
75985;DHT22;65033;44.660;37.758;2023-03-01T01:59:51;28.46;30.84
75985;DHT22;65033;44.660;37.758;2023-03-01T02:00:56;28.45;30.86
75985;DHT22;65033;44.660;37.758;2023-03-01T02:02:02;28.45;30.85
75985;DHT22;65033;44.660;37.758;2023-03-01T02:03:09;28.44;30.84
75985;DHT22;65033;44.660;37.758;2023-03-01T02:04:13;28.45;30.84
75985;DHT22;65033;44.660;37.758;2023-03-01T02:05:22;28.46;30.76
75985;DHT22;65033;44.660;37.758;2023-03-01T02:06:29;28.44;30.79
75985;DHT22;65033;44.660;37.758;2023-03-01T02:07:35;28.45;30.77
75985;DHT22;65033;44.660;37.758;2023-03-01T02:08:40;28.45;30.71
75985;DHT22;65033;44.660;37.758;2023-03-01T02:09:47;28.46;30.71
75985;DHT22;65033;44.660;37.758;2023-03-01T02:10:52;28.45;30.68
75985;DHT22;65033;44.660;37.758;2023-03-01T02:11:56;28.45;30.71
75985;DHT22;65033;44.660;37.758;2023-03-01T02:13:01;28.46;30.67
75985;DHT22;65033;44.660;37.758;2023-03-01T02:14:04;28.44;30.64
75985;DHT22;65033;44.660;37.758;2023-03-01T02:15:10;28.45;30.64
75985;DHT22;65033;44.660;37.758;2023-03-01T02:16:15;28.45;30.61
75985;DHT22;65033;44.660;37.758;2023-03-01T02:17:19;28.45;30.61
75985;DHT22;65033;44.660;37.758;2023-03-01T02:18:24;28.45;30.58
75985;DHT22;65033;44.660;37.758;2023-03-01T02:19:40;28.45;30.60
75985;DHT22;65033;44.660;37.758;2023-03-01T02:20:52;28.45;30.59
75985;DHT22;65033;44.660;37.758;2023-03-01T02:22:03;28.44;30.57
75985;DHT22;65033;44.660;37.758;2023-03-01T02:23:09;28.44;30.60
75985;DHT22;65033;44.660;37.758;2023-03-01T02:24:21;28.43;30.51
75985;DHT22;65033;44.660;37.758;2023-03-01T02:25:32;28.44;30.53
75985;DHT22;65033;44.660;37.758;2023-03-01T02:26:41;28.45;30.50
75985;DHT22;65033;44.660;37.758;2023-03-01T02:27:51;28.43;30.48
75985;DHT22;65033;44.660;37.758;2023-03-01T02:28:57;28.42;30.48
75985;DHT22;65033;44.660;37.758;2023-03-01T02:30:02;28.42;30.53
75985;DHT22;65033;44.660;37.758;2023-03-01T02:31:06;28.42;30.45
75985;DHT22;65033;44.660;37.758;2023-03-01T02:32:29;28.42;30.45
75985;DHT22;65033;44.660;37.758;2023-03-01T02:33:35;28.41;30.41
75985;DHT22;65033;44.660;37.758;2023-03-01T02:34:39;28.42;30.45
75985;DHT22;65033;44.660;37.758;2023-03-01T02:35:42;28.41;30.46
75985;DHT22;65033;44.660;37.758;2023-03-01T02:36:49;28.40;30.51
75985;DHT22;65033;44.660;37.758;2023-03-01T02:37:54;28.40;30.58
75985;DHT22;65033;44.660;37.758;2023-03-01T02:39:02;28.40;30.55
75985;DHT22;65033;44.660;37.758;2023-03-01T02:40:08;28.40;30.53
75985;DHT22;65033;44.660;37.758;2023-03-01T02:41:17;28.40;30.50
75985;DHT22;65033;44.660;37.758;2023-03-01T02:42:26;28.40;30.50
75985;DHT22;65033;44.660;37.758;2023-03-01T02:43:31;28.40;30.46
75985;DHT22;65033;44.660;37.758;2023-03-01T02:44:37;28.40;30.46
75985;DHT22;65033;44.660;37.758;2023-03-01T02:45:48;28.41;30.38
75985;DHT22;65033;44.660;37.758;2023-03-01T02:46:54;28.41;30.38
75985;DHT22;65033;44.660;37.758;2023-03-01T02:47:58;28.39;30.39
75985;DHT22;65033;44.660;37.758;2023-03-01T02:49:18;28.39;30.42
75985;DHT22;65033;44.660;37.758;2023-03-01T02:50:39;28.40;30.35
75985;DHT22;65033;44.660;37.758;2023-03-01T02:51:56;28.39;30.37
75985;DHT22;65033;44.660;37.758;2023-03-01T02:53:10;28.39;30.30
75985;DHT22;65033;44.660;37.758;2023-03-01T02:54:21;28.37;30.33
75985;DHT22;65033;44.660;37.758;2023-03-01T02:55:27;28.38;30.27
75985;DHT22;65033;44.660;37.758;2023-03-01T02:56:32;28.39;30.21
75985;DHT22;65033;44.660;37.758;2023-03-01T02:57:37;28.37;30.23
75985;DHT22;65033;44.660;37.758;2023-03-01T02:58:42;28.37;30.25
75985;DHT22;65033;44.660;37.758;2023-03-01T02:59:51;28.37;30.24
75985;DHT22;65033;44.660;37.758;2023-03-01T03:00:56;28.38;30.22
75985;DHT22;65033;44.660;37.758;2023-03-01T03:02:01;28.37;30.20
75985;DHT22;65033;44.660;37.758;2023-03-01T03:03:07;28.37;30.17
75985;DHT22;65033;44.660;37.758;2023-03-01T03:04:13;28.38;30.13
75985;DHT22;65033;44.660;37.758;2023-03-01T03:05:23;28.34;30.11
75985;DHT22;65033;44.660;37.758;2023-03-01T03:06:31;28.35;30.14
75985;DHT22;65033;44.660;37.758;2023-03-01T03:07:35;28.37;30.14
75985;DHT22;65033;44.660;37.758;2023-03-01T03:08:40;28.37;30.18
75985;DHT22;65033;44.660;37.758;2023-03-01T03:09:43;28.37;30.16
75985;DHT22;65033;44.660;37.758;2023-03-01T03:10:47;28.35;30.11
75985;DHT22;65033;44.660;37.758;2023-03-01T03:11:50;28.37;30.06
75985;DHT22;65033;44.660;37.758;2023-03-01T03:12:56;28.35;30.08
75985;DHT22;65033;44.660;37.758;2023-03-01T03:14:00;28.35;30.06
75985;DHT22;65033;44.660;37.758;2023-03-01T03:15:07;28.35;30.03
75985;DHT22;65033;44.660;37.758;2023-03-01T03:16:11;28.35;30.10
75985;DHT22;65033;44.660;37.758;2023-03-01T03:17:14;28.35;30.11
75985;DHT22;65033;44.660;37.758;2023-03-01T03:18:18;28.37;30.09
75985;DHT22;65033;44.660;37.758;2023-03-01T03:19:21;28.35;30.16
75985;DHT22;65033;44.660;37.758;2023-03-01T03:20:26;28.38;30.13
75985;DHT22;65033;44.660;37.758;2023-03-01T03:21:30;28.38;30.15
75985;DHT22;65033;44.660;37.758;2023-03-01T03:22:33;28.37;30.16
75985;DHT22;65033;44.660;37.758;2023-03-01T03:23:37;28.37;30.13
75985;DHT22;65033;44.660;37.758;2023-03-01T03:24:40;28.37;30.13
75985;DHT22;65033;44.660;37.758;2023-03-01T03:25:43;28.38;30.14
75985;DHT22;65033;44.660;37.758;2023-03-01T03:26:46;28.37;30.13
75985;DHT22;65033;44.660;37.758;2023-03-01T03:27:50;28.38;30.14
75985;DHT22;65033;44.660;37.758;2023-03-01T03:28:59;28.37;30.13
75985;DHT22;65033;44.660;37.758;2023-03-01T03:30:05;28.37;30.14
75985;DHT22;65033;44.660;37.758;2023-03-01T03:31:11;28.38;30.15
75985;DHT22;65033;44.660;37.758;2023-03-01T03:32:15;28.38;30.11
75985;DHT22;65033;44.660;37.758;2023-03-01T03:33:18;28.37;30.11
75985;DHT22;65033;44.660;37.758;2023-03-01T03:34:21;28.38;30.06
75985;DHT22;65033;44.660;37.758;2023-03-01T03:35:26;28.37;30.06
75985;DHT22;65033;44.660;37.758;2023-03-01T03:36:31;28.38;30.06
75985;DHT22;65033;44.660;37.758;2023-03-01T03:37:34;28.37;30.05
75985;DHT22;65033;44.660;37.758;2023-03-01T03:38:55;28.37;30.03
75985;DHT22;65033;44.660;37.758;2023-03-01T03:39:59;28.34;30.04
75985;DHT22;65033;44.660;37.758;2023-03-01T03:41:04;28.35;30.05
75985;DHT22;65033;44.660;37.758;2023-03-01T03:42:07;28.37;30.06
75985;DHT22;65033;44.660;37.758;2023-03-01T03:43:12;28.35;30.04
75985;DHT22;65033;44.660;37.758;2023-03-01T03:44:15;28.35;30.03
75985;DHT22;65033;44.660;37.758;2023-03-01T03:45:20;28.34;30.05
75985;DHT22;65033;44.660;37.758;2023-03-01T03:46:24;28.34;30.06
75985;DHT22;65033;44.660;37.758;2023-03-01T03:47:27;28.35;30.08
75985;DHT22;65033;44.660;37.758;2023-03-01T03:48:30;28.34;29.51
75985;DHT22;65033;44.660;37.758;2023-03-01T03:49:33;28.34;29.45
75985;DHT22;65033;44.660;37.758;2023-03-01T03:50:37;28.34;29.55
75985;DHT22;65033;44.660;37.758;2023-03-01T03:51:41;28.32;29.75
75985;DHT22;65033;44.660;37.758;2023-03-01T03:52:44;28.33;29.90
75985;DHT22;65033;44.660;37.758;2023-03-01T03:53:48;28.33;29.93
75985;DHT22;65033;44.660;37.758;2023-03-01T03:54:51;28.33;29.93
75985;DHT22;65033;44.660;37.758;2023-03-01T03:55:54;28.34;29.96
75985;DHT22;65033;44.660;37.758;2023-03-01T03:56:57;28.34;30.00
75985;DHT22;65033;44.660;37.758;2023-03-01T03:58:02;28.34;30.00
75985;DHT22;65033;44.660;37.758;2023-03-01T03:59:09;28.33;30.03
75985;DHT22;65033;44.660;37.758;2023-03-01T04:00:14;28.32;29.98
75985;DHT22;65033;44.660;37.758;2023-03-01T04:01:20;28.32;30.02
75985;DHT22;65033;44.660;37.758;2023-03-01T04:02:24;28.33;30.03
75985;DHT22;65033;44.660;37.758;2023-03-01T04:03:29;28.34;29.99
75985;DHT22;65033;44.660;37.758;2023-03-01T04:04:32;28.34;29.98
75985;DHT22;65033;44.660;37.758;2023-03-01T04:05:36;28.33;29.97
75985;DHT22;65033;44.660;37.758;2023-03-01T04:06:39;28.32;29.92
75985;DHT22;65033;44.660;37.758;2023-03-01T04:07:43;28.33;29.92
75985;DHT22;65033;44.660;37.758;2023-03-01T04:08:46;28.33;29.90
75985;DHT22;65033;44.660;37.758;2023-03-01T04:09:49;28.33;29.89
75985;DHT22;65033;44.660;37.758;2023-03-01T04:10:58;28.34;29.88
75985;DHT22;65033;44.660;37.758;2023-03-01T04:12:04;28.33;29.93
75985;DHT22;65033;44.660;37.758;2023-03-01T04:13:10;28.33;29.98
75985;DHT22;65033;44.660;37.758;2023-03-01T04:14:14;28.34;30.02
75985;DHT22;65033;44.660;37.758;2023-03-01T04:15:17;28.33;30.04
75985;DHT22;65033;44.660;37.758;2023-03-01T04:16:23;28.34;30.05
75985;DHT22;65033;44.660;37.758;2023-03-01T04:17:27;28.34;30.07
75985;DHT22;65033;44.660;37.758;2023-03-01T04:18:31;28.34;30.09
75985;DHT22;65033;44.660;37.758;2023-03-01T04:19:34;28.35;30.06
75985;DHT22;65033;44.660;37.758;2023-03-01T04:20:39;28.34;30.08
75985;DHT22;65033;44.660;37.758;2023-03-01T04:21:42;28.35;30.07
75985;DHT22;65033;44.660;37.758;2023-03-01T04:22:46;28.34;30.09
75985;DHT22;65033;44.660;37.758;2023-03-01T04:23:50;28.33;30.08
75985;DHT22;65033;44.660;37.758;2023-03-01T04:24:55;28.34;30.10
75985;DHT22;65033;44.660;37.758;2023-03-01T04:25:59;28.35;30.08
75985;DHT22;65033;44.660;37.758;2023-03-01T04:27:02;28.35;30.07
75985;DHT22;65033;44.660;37.758;2023-03-01T04:28:06;28.35;30.09
75985;DHT22;65033;44.660;37.758;2023-03-01T04:29:10;28.35;30.09
75985;DHT22;65033;44.660;37.758;2023-03-01T04:30:14;28.35;30.05
75985;DHT22;65033;44.660;37.758;2023-03-01T04:31:18;28.35;30.07
75985;DHT22;65033;44.660;37.758;2023-03-01T04:32:25;28.35;30.01
75985;DHT22;65033;44.660;37.758;2023-03-01T04:33:29;28.35;30.04
75985;DHT22;65033;44.660;37.758;2023-03-01T04:34:32;28.34;30.03
75985;DHT22;65033;44.660;37.758;2023-03-01T04:35:36;28.34;29.49
75985;DHT22;65033;44.660;37.758;2023-03-01T04:36:40;28.34;29.19
75985;DHT22;65033;44.660;37.758;2023-03-01T04:37:44;28.31;29.13
75985;DHT22;65033;44.660;37.758;2023-03-01T04:38:48;28.31;29.51
75985;DHT22;65033;44.660;37.758;2023-03-01T04:39:51;28.30;29.86
75985;DHT22;65033;44.660;37.758;2023-03-01T04:40:55;28.31;29.91
75985;DHT22;65033;44.660;37.758;2023-03-01T04:41:58;28.32;29.89
75985;DHT22;65033;44.660;37.758;2023-03-01T04:43:03;28.31;29.90
75985;DHT22;65033;44.660;37.758;2023-03-01T04:44:06;28.30;29.95
75985;DHT22;65033;44.660;37.758;2023-03-01T04:45:12;28.31;29.95
75985;DHT22;65033;44.660;37.758;2023-03-01T04:46:17;28.32;29.99
75985;DHT22;65033;44.660;37.758;2023-03-01T04:47:21;28.32;30.05
75985;DHT22;65033;44.660;37.758;2023-03-01T04:48:25;28.32;30.06
75985;DHT22;65033;44.660;37.758;2023-03-01T04:49:29;28.32;30.07
75985;DHT22;65033;44.660;37.758;2023-03-01T04:50:32;28.32;30.09
75985;DHT22;65033;44.660;37.758;2023-03-01T04:51:36;28.31;30.14
75985;DHT22;65033;44.660;37.758;2023-03-01T04:52:39;28.31;30.16
75985;DHT22;65033;44.660;37.758;2023-03-01T04:53:43;28.31;30.19
75985;DHT22;65033;44.660;37.758;2023-03-01T04:54:47;28.32;30.24
75985;DHT22;65033;44.660;37.758;2023-03-01T04:55:50;28.32;30.29
75985;DHT22;65033;44.660;37.758;2023-03-01T04:56:54;28.33;30.32
75985;DHT22;65033;44.660;37.758;2023-03-01T04:57:57;28.32;30.34
75985;DHT22;65033;44.660;37.758;2023-03-01T04:59:01;28.31;30.32
75985;DHT22;65033;44.660;37.758;2023-03-01T05:00:11;28.33;30.35
75985;DHT22;65033;44.660;37.758;2023-03-01T05:01:24;28.31;30.37
75985;DHT22;65033;44.660;37.758;2023-03-01T05:02:28;28.32;30.38
75985;DHT22;65033;44.660;37.758;2023-03-01T05:03:34;28.32;30.42
75985;DHT22;65033;44.660;37.758;2023-03-01T05:04:37;28.32;30.41
75985;DHT22;65033;44.660;37.758;2023-03-01T05:05:40;28.32;30.39
75985;DHT22;65033;44.660;37.758;2023-03-01T05:06:44;28.32;30.40
75985;DHT22;65033;44.660;37.758;2023-03-01T05:07:47;28.32;29.84
75985;DHT22;65033;44.660;37.758;2023-03-01T05:08:51;28.31;29.08
75985;DHT22;65033;44.660;37.758;2023-03-01T05:09:54;28.30;29.32
75985;DHT22;65033;44.660;37.758;2023-03-01T05:10:59;28.29;29.61
75985;DHT22;65033;44.660;37.758;2023-03-01T05:12:03;28.29;29.80
75985;DHT22;65033;44.660;37.758;2023-03-01T05:13:06;28.28;29.93
75985;DHT22;65033;44.660;37.758;2023-03-01T05:14:11;28.29;30.03
75985;DHT22;65033;44.660;37.758;2023-03-01T05:15:14;28.29;30.06
75985;DHT22;65033;44.660;37.758;2023-03-01T05:16:18;28.28;30.08
75985;DHT22;65033;44.660;37.758;2023-03-01T05:17:23;28.28;30.08
75985;DHT22;65033;44.660;37.758;2023-03-01T05:18:28;28.29;30.06
75985;DHT22;65033;44.660;37.758;2023-03-01T05:19:35;28.28;30.05
75985;DHT22;65033;44.660;37.758;2023-03-01T05:20:38;28.29;30.08
75985;DHT22;65033;44.660;37.758;2023-03-01T05:21:42;28.28;30.09
75985;DHT22;65033;44.660;37.758;2023-03-01T05:23:04;28.28;30.09
75985;DHT22;65033;44.660;37.758;2023-03-01T05:24:08;28.29;30.07
75985;DHT22;65033;44.660;37.758;2023-03-01T05:25:14;28.29;30.07
75985;DHT22;65033;44.660;37.758;2023-03-01T05:26:20;28.29;30.03
75985;DHT22;65033;44.660;37.758;2023-03-01T05:27:30;28.28;30.02
75985;DHT22;65033;44.660;37.758;2023-03-01T05:28:34;28.28;30.04
75985;DHT22;65033;44.660;37.758;2023-03-01T05:29:37;28.29;30.06
75985;DHT22;65033;44.660;37.758;2023-03-01T05:30:42;28.29;30.08
75985;DHT22;65033;44.660;37.758;2023-03-01T05:31:46;28.30;30.03
75985;DHT22;65033;44.660;37.758;2023-03-01T05:32:50;28.28;30.03
75985;DHT22;65033;44.660;37.758;2023-03-01T05:33:58;28.28;30.05
75985;DHT22;65033;44.660;37.758;2023-03-01T05:35:04;28.28;30.05
75985;DHT22;65033;44.660;37.758;2023-03-01T05:36:09;28.26;30.06
75985;DHT22;65033;44.660;37.758;2023-03-01T05:37:13;28.28;30.28
75985;DHT22;65033;44.660;37.758;2023-03-01T05:38:17;28.29;30.29
75985;DHT22;65033;44.660;37.758;2023-03-01T05:39:21;28.29;30.16
75985;DHT22;65033;44.660;37.758;2023-03-01T05:40:25;28.31;29.92
75985;DHT22;65033;44.660;37.758;2023-03-01T05:41:29;28.32;30.23
75985;DHT22;65033;44.660;37.758;2023-03-01T05:42:32;28.31;30.29
75985;DHT22;65033;44.660;37.758;2023-03-01T05:43:35;28.32;30.42
75985;DHT22;65033;44.660;37.758;2023-03-01T05:44:39;28.33;30.75
75985;DHT22;65033;44.660;37.758;2023-03-01T05:45:43;28.34;30.84
75985;DHT22;65033;44.660;37.758;2023-03-01T05:46:47;28.37;31.04
75985;DHT22;65033;44.660;37.758;2023-03-01T05:47:51;28.38;30.99
75985;DHT22;65033;44.660;37.758;2023-03-01T05:48:56;28.37;31.06
75985;DHT22;65033;44.660;37.758;2023-03-01T05:49:59;28.40;31.14
75985;DHT22;65033;44.660;37.758;2023-03-01T05:51:04;28.40;31.27
75985;DHT22;65033;44.660;37.758;2023-03-01T05:52:09;28.41;31.16
75985;DHT22;65033;44.660;37.758;2023-03-01T05:53:14;28.42;31.23
75985;DHT22;65033;44.660;37.758;2023-03-01T05:54:19;28.44;31.23
75985;DHT22;65033;44.660;37.758;2023-03-01T05:55:22;28.45;31.25
75985;DHT22;65033;44.660;37.758;2023-03-01T05:56:26;28.46;31.27
75985;DHT22;65033;44.660;37.758;2023-03-01T05:57:30;28.47;31.24
75985;DHT22;65033;44.660;37.758;2023-03-01T05:58:33;28.49;31.33
75985;DHT22;65033;44.660;37.758;2023-03-01T05:59:37;28.50;31.34
75985;DHT22;65033;44.660;37.758;2023-03-01T06:00:41;28.50;31.41
75985;DHT22;65033;44.660;37.758;2023-03-01T06:01:44;28.54;31.35
75985;DHT22;65033;44.660;37.758;2023-03-01T06:02:49;28.53;31.41
75985;DHT22;65033;44.660;37.758;2023-03-01T06:03:55;28.55;31.42
75985;DHT22;65033;44.660;37.758;2023-03-01T06:04:59;28.56;31.64
75985;DHT22;65033;44.660;37.758;2023-03-01T06:06:05;28.57;31.54
75985;DHT22;65033;44.660;37.758;2023-03-01T06:07:08;28.58;31.50
75985;DHT22;65033;44.660;37.758;2023-03-01T06:08:12;28.60;31.52
75985;DHT22;65033;44.660;37.758;2023-03-01T06:09:16;28.62;31.50
75985;DHT22;65033;44.660;37.758;2023-03-01T06:10:21;28.62;31.66
75985;DHT22;65033;44.660;37.758;2023-03-01T06:11:25;28.62;31.54
75985;DHT22;65033;44.660;37.758;2023-03-01T06:12:30;28.64;31.57
75985;DHT22;65033;44.660;37.758;2023-03-01T06:13:34;28.64;31.51
75985;DHT22;65033;44.660;37.758;2023-03-01T06:14:37;28.65;31.48
75985;DHT22;65033;44.660;37.758;2023-03-01T06:15:41;28.67;31.49
75985;DHT22;65033;44.660;37.758;2023-03-01T06:16:44;28.69;31.48
75985;DHT22;65033;44.660;37.758;2023-03-01T06:17:48;28.69;31.51
75985;DHT22;65033;44.660;37.758;2023-03-01T06:18:51;28.70;31.54
75985;DHT22;65033;44.660;37.758;2023-03-01T06:19:55;28.71;31.51
75985;DHT22;65033;44.660;37.758;2023-03-01T06:20:58;28.71;31.50
75985;DHT22;65033;44.660;37.758;2023-03-01T06:22:03;28.73;31.43
75985;DHT22;65033;44.660;37.758;2023-03-01T06:23:07;28.73;31.51
75985;DHT22;65033;44.660;37.758;2023-03-01T06:24:11;28.73;31.53
75985;DHT22;65033;44.660;37.758;2023-03-01T06:25:17;28.75;31.52
75985;DHT22;65033;44.660;37.758;2023-03-01T06:26:20;28.77;31.49
75985;DHT22;65033;44.660;37.758;2023-03-01T06:27:24;28.76;31.46
75985;DHT22;65033;44.660;37.758;2023-03-01T06:28:27;28.78;31.58
75985;DHT22;65033;44.660;37.758;2023-03-01T06:29:31;28.79;31.53
75985;DHT22;65033;44.660;37.758;2023-03-01T06:30:34;28.79;31.51
75985;DHT22;65033;44.660;37.758;2023-03-01T06:31:38;28.79;31.45
75985;DHT22;65033;44.660;37.758;2023-03-01T06:32:41;28.80;31.54
75985;DHT22;65033;44.660;37.758;2023-03-01T06:33:45;28.82;31.51
75985;DHT22;65033;44.660;37.758;2023-03-01T06:34:49;28.84;31.31
75985;DHT22;65033;44.660;37.758;2023-03-01T06:35:55;28.82;30.87
75985;DHT22;65033;44.660;37.758;2023-03-01T06:37:06;28.82;30.45
75985;DHT22;65033;44.660;37.758;2023-03-01T06:38:09;28.82;30.58
75985;DHT22;65033;44.660;37.758;2023-03-01T06:39:13;28.83;30.81
75985;DHT22;65033;44.660;37.758;2023-03-01T06:40:18;28.83;30.91
75985;DHT22;65033;44.660;37.758;2023-03-01T06:41:22;28.84;31.00
75985;DHT22;65033;44.660;37.758;2023-03-01T06:42:25;28.84;30.95
75985;DHT22;65033;44.660;37.758;2023-03-01T06:43:28;28.85;31.00